South Reno (Wolf Run), Nevada Weather observations

Data are for observation ending at time listed.
 Day   Time    Ave.   Ave.  Ave.  Vector   Max.   Stn.    Total    Solar   Ave.  
  of    of     Air    Rel.  Wind   Wind    Wind   Baro.  Precip.   Rad.    Soil  
Year   Day     Temp.  Hum.  Speed  Dir.    Gust   Pres.                    Temp. 
2014   (PST)    F      %     mph   deg.    mph     mb.     in.     W/m2     F   
------------------------------------------------------------------------------
 205    7:40   67.5    30    2.1    20      5.8  99999.0    0.00     476    67.5
 205    7:50   67.3    30    3.1     9      5.1  99999.0    0.00     508    67.5
 205    8:00   67.5    30    3.9    14      9.0  99999.0    0.00     541    67.5
 205    8:10   68.0    30    4.4    13      7.2  99999.0    0.00     572    67.5
 205    8:20   68.4    30    4.4     2      9.1  99999.0    0.00     602    67.5
 205    8:30   68.8    30    4.4     7      8.2  99999.0    0.00     631    67.5
 205    8:40   69.3    29    3.4   358      8.7  99999.0    0.00     660    67.6
 205    8:50   70.0    28    4.4    25      7.2  99999.0    0.00     689    67.6
 205    9:00   70.5    26    4.5    36      8.4  99999.0    0.00     717    67.7
 205    9:10   71.7    26    3.7     6      9.6  99999.0    0.00     742    67.7
 205    9:20   71.5    26    4.9   350      9.0  99999.0    0.00     767    67.8
 205    9:30   71.9    27    4.6   342      8.8  99999.0    0.00     792    67.9
 205    9:40   72.5    25    4.4     6      9.4  99999.0    0.00     817    67.9
 205    9:50   73.5    24    4.7   360     10.1  99999.0    0.00     839    68.0
 205   10:00   73.9    24    3.6   349      8.0  99999.0    0.00     859    68.1
 205   10:10   74.8    24    3.5   331      8.8  99999.0    0.00     878    68.2
 205   10:20   74.7    24    3.6   325     11.0  99999.0    0.00     896    68.3
 205   10:30   75.3    24    3.6   328      8.4  99999.0    0.00     835    68.5
 205   10:40   75.4    23    3.4   318      8.0  99999.0    0.00     814    68.6
 205   10:50   76.2    22    4.2    38     10.9  99999.0    0.00     943    68.7
 205   11:00   76.8    23    2.5   334     11.3  99999.0    0.00     935    68.9
 205   11:10   76.6    22    4.5    57     10.3  99999.0    0.00     965    69.0
 205   11:20   78.4    20    3.0    24      8.4  99999.0    0.00     976    69.2
 205   11:30   78.0    21    5.0   348      9.7  99999.0    0.00     979    69.4
 205   11:40   78.7    20    5.4    12     12.2  99999.0    0.00     987    69.6
 205   11:50   78.9    20    4.7   357     10.3  99999.0    0.00     992    69.8
 205   12:00   79.8    20    4.5    44     10.3  99999.0    0.00     995    70.0
 205   12:10   80.6    18    5.5    10      9.7  99999.0    0.00     996    70.2
 205   12:20   81.3    19    5.0    11     11.0  99999.0    0.00     993    70.4
 205   12:30   81.0    18    4.8    20     11.3  99999.0    0.00     993    70.6
 205   12:40   81.6    19    6.7   340     12.2  99999.0    0.00     988    70.8
 205   12:50   81.5    19    7.3   355     14.7  99999.0    0.00     983    71.0
 205   13:00   82.1    18    5.8     3     10.8  99999.0    0.00     976    71.2
 205   13:10   82.7    18    7.1    14     12.0  99999.0    0.00     967    71.5
 205   13:20   82.7    17    5.4    48     11.2  99999.0    0.00     957    71.7
 205   13:30   84.1    17    5.5    11      9.9  99999.0    0.00     947    71.9
 205   13:40   84.7    16    5.4    18     11.7  99999.0    0.00     934    72.1
 205   13:50   83.9    17    7.1    16     15.2  99999.0    0.00     919    72.3
 205   14:00   84.7    17    6.4     4     12.1  99999.0    0.00     904    72.6
 205   14:10   85.1    16    6.6     6     12.2  99999.0    0.00     888    72.8
 205   14:20   85.4    16    5.4     1     14.4  99999.0    0.00     870    73.0
 205   14:30   85.2    15    7.0     0     12.4  99999.0    0.00     848    73.2
 205   14:40   86.1    15    3.5   341     10.2  99999.0    0.00     829    73.4
 205   14:50   86.6    16    3.8   324      9.7  99999.0    0.00     805    73.5
 205   15:00   86.5    15    4.7   344     10.8  99999.0    0.00     782    73.7
 205   15:10   87.3    15    4.3    20     10.6  99999.0    0.00     756    73.9
 205   15:20   86.9    15    5.3   356     10.7  99999.0    0.00     731    74.1
 205   15:30   86.8    15    5.6   350     12.6  99999.0    0.00     704    74.2
 205   15:40   87.1    15    5.5   327     10.3  99999.0    0.00     677    74.4
 205   15:50   87.6    15    5.9   324     11.2  99999.0    0.00     649    74.5
 205   16:00   87.0    15    5.8   338      9.7  99999.0    0.00     619    74.7
 205   16:10   87.0    14    5.2     6      9.0  99999.0    0.00     589    74.8
 205   16:20   87.2    14    5.1   349      9.4  99999.0    0.00     558    74.9
 205   16:30   86.9    14    7.1     4     13.1  99999.0    0.00     527    75.0
 205   16:40   86.2    15    7.4     1     11.7  99999.0    0.00     495    75.1
 205   16:50   86.5    15    8.0     1     14.4  99999.0    0.00     461    75.2
 205   17:00   85.9    15    7.5   352     12.5  99999.0    0.00     430    75.3
 205   17:10   86.0    14    6.3   359     12.2  99999.0    0.00     397    75.3
 205   17:20   85.7    15    6.7     7     11.5  99999.0    0.00     365    75.3
 205   17:30   85.4    15    6.6     0     10.8  99999.0    0.00     331    75.4
 205   17:40   85.3    15    5.7     2     10.4  99999.0    0.00     298    75.4
 205   17:50   84.7    15    6.4    15     10.2  99999.0    0.00     264    75.4
 205   18:00   83.6    16    7.1    16     13.6  99999.0    0.00     231    75.3
 205   18:10   82.8    16    7.2    21     11.6  99999.0    0.00     200    75.3
 205   18:20   81.9    17    5.2    11      9.7  99999.0    0.00     152    75.3
 205   18:30   81.4    18    4.4   357      8.6  99999.0    0.00      59    75.2
 205   18:40   80.7    18    5.3   343      9.2  99999.0    0.00      22    75.1
 205   18:50   80.1    18    5.7   341     10.7  99999.0    0.00      19    74.9
 205   19:00   78.1    20    4.6   332      7.9  99999.0    0.00      13    74.8
 205   19:10   76.6    21    4.6   318      8.0  99999.0    0.00       9    74.7
 205   19:20   75.7    21    5.7   309      8.8  99999.0    0.00       6    74.6
 205   19:30   75.4    21    5.3   306      8.0  99999.0    0.00       2    74.5
 205   19:40   74.7    21    4.7   304      7.9  99999.0    0.00       1    74.4
 205   19:50   74.5    21    4.8   302      8.6  99999.0    0.00       0    74.2
 205   20:00   74.1    21    3.5   301      9.7  99999.0    0.00       0    74.1
 205   20:10   72.9    23    3.0   295      9.9  99999.0    0.00       0    74.0
 205   20:20   72.6    22    2.8   294      5.8  99999.0    0.00       0    73.9
 205   20:30   71.6    26    0.8   292      4.9  99999.0    0.00       0    73.8
 205   20:40   69.1    28    0.4   285      2.6  99999.0    0.00       0    73.7
 205   20:50   68.6    27    0.2   291      4.3  99999.0    0.00       0    73.7
 205   21:00   68.3    27    0.1   291      1.8  99999.0    0.00       0    73.6
 205   21:10   67.8    29    0.1   289      1.5  99999.0    0.00       0    73.5
 205   21:20   67.2    29    0.1   290      2.5  99999.0    0.00       0    73.4
 205   21:30   67.8    27    1.2   137      4.0  99999.0    0.00       0    73.3
 205   21:40   68.1    26    3.7   214      5.4  99999.0    0.00       0    73.2
 205   21:50   65.8    29    4.9   222      5.9  99999.0    0.00       0    73.1
 205   22:00   65.2    30    5.2   227      7.2  99999.0    0.00       0    73.0
 205   22:10   65.5    30    4.8   224      6.8  99999.0    0.00       0    72.9
 205   22:20   66.5    29    5.3   228      7.1  99999.0    0.00       0    72.8
 205   22:30   66.5    30    5.8   236      8.4  99999.0    0.00       0    72.7
 205   22:40   67.1    29    7.0   240      9.8  99999.0    0.00       0    72.6
 205   22:50   66.9    30    6.8   247      9.4  99999.0    0.00       0    72.6
 205   23:00   67.1    29    6.0   247      9.6  99999.0    0.00       0    72.5
 205   23:10   66.8    29    7.0   247      9.9  99999.0    0.00       0    72.4
 205   23:20   66.8    29    7.3   248     10.5  99999.0    0.00       0    72.3
 205   23:30   66.7    29    7.6   249     10.5  99999.0    0.00       0    72.2
 205   23:40   66.6    29    7.0   248      9.8  99999.0    0.00       0    72.1
 205   23:50   66.4    29    6.2   251      9.7  99999.0    0.00       0    72.1
 206    0:00   66.4    29    7.2   250     10.1  99999.0    0.00       0    72.0
 206    0:10   66.2    30    6.6   250     10.6  99999.0    0.00       0    71.9
 206    0:20   66.3    29    7.0   250     10.6  99999.0    0.00       0    71.8
 206    0:30   66.1    30    5.5   250      8.8  99999.0    0.00       0    71.7
 206    0:40   65.3    31    2.2   254      8.0  99999.0    0.00       0    71.6
 206    0:50   64.4    32    1.2   258      6.0  99999.0    0.00       0    71.5
 206    1:00   63.6    33    1.7   255      6.4  99999.0    0.00       0    71.5
 206    1:10   63.6    33    0.9   258      4.0  99999.0    0.00       0    71.4
 206    1:20   62.6    36    2.2   259      8.8  99999.0    0.00       0    71.3
 206    1:30   61.7    37    0.6   257      3.8  99999.0    0.00       0    71.2
 206    1:40   60.7    39    0.0   286      1.2  99999.0    0.00       0    71.1
 206    1:50   59.8    45    0.2   265      2.8  99999.0    0.00       0    71.0
 206    2:00   59.5    42    2.6   246      5.6  99999.0    0.00       0    70.9
 206    2:10   60.5    37    2.9   228      4.8  99999.0    0.00       0    70.8
 206    2:20   59.8    38    2.9   244      5.0  99999.0    0.00       0    70.8
 206    2:30   59.7    36    4.3   230      6.3  99999.0    0.00       0    70.7
 206    2:40   59.4    36    4.8   226      7.0  99999.0    0.00       0    70.6
 206    2:50   58.2    38    3.6   234      4.7  99999.0    0.00       0    70.5
 206    3:00   57.7    39    2.5   236      4.8  99999.0    0.00       0    70.4
 206    3:10   58.2    38    3.8   241      5.7  99999.0    0.00       0    70.3
 206    3:20   58.3    38    4.8   240      6.9  99999.0    0.00       0    70.2
 206    3:30   59.0    37    4.8   240      7.0  99999.0    0.00       0    70.2
 206    3:40   57.9    40    3.6   246      5.6  99999.0    0.00       0    70.1
 206    3:50   57.8    40    4.6   248      6.7  99999.0    0.00       0    70.0
 206    4:00   57.7    40    3.7   252      6.9  99999.0    0.00       0    69.9
 206    4:10   57.8    39    3.8   254      8.1  99999.0    0.00       0    69.8
 206    4:20   57.9    38    4.2   252      7.1  99999.0    0.00       0    69.7
 206    4:30   57.9    37    4.4   247      6.7  99999.0    0.00       0    69.7
 206    4:40   57.5    37    5.0   235      6.2  99999.0    0.00       0    69.6
 206    4:50   56.7    38    3.7   237      4.7  99999.0    0.00       2    69.5
 206    5:00   56.7    38    3.2   237      4.6  99999.0    0.00       6    69.5
 206    5:10   57.3    37    2.3   246      4.1  99999.0    0.00      12    69.4
 206    5:20   58.6    36    0.9   257      3.1  99999.0    0.00      31    69.3
 206    5:30   60.6    35    0.1   248      3.7  99999.0    0.00      56    69.2
 206    5:40   63.5    33    0.2   299      2.7  99999.0    0.00      89    69.2
 206    5:50   63.3    32    2.1   350      3.5  99999.0    0.00     125    69.1
 206    6:00   63.6    33    2.8   347      4.0  99999.0    0.00     156    69.0
 206    6:10   64.7    34    0.7   323      2.6  99999.0    0.00     185    69.0
 206    6:20   66.5    32    0.5     4      2.5  99999.0    0.00     217    68.9
 206    6:30   67.6    32    1.1    93      4.5  99999.0    0.00     248    68.8
 206    6:40   65.8    31    3.0   108      5.2  99999.0    0.00     281    68.8
 206    6:50   66.2    29    2.3   138      4.3  99999.0    0.00     314    68.7
 206    7:00   67.7    30    2.5   101      4.8  99999.0    0.00     346    68.7
 206    7:10   67.6    30    3.9    99      5.4  99999.0    0.00     378    68.6
 206    7:20   68.5    30    3.5    85      5.6  99999.0    0.00     411    68.6
 206    7:30   69.4    28    2.2    64      4.8  99999.0    0.00     445    68.5

Return to South Reno, Nevada graphs page.


Western Regional Climate Center,wrcc@dri.edu